Time;durP1;ratioP1;P1;durP2;ratioP2;P2;SDS_P1;SDS_P2;PMS_P1;PMS_P2;Temp;Humidity;BMP_temperature;BMP_pressure;BME280_temperature;BME280_humidity;BME280_pressure;Samples;Min_cycle;Max_cycle;Signal;HPM_P1;HPM_P2
2021/12/13 00:01:20;;;;;;;;;;;23.30;40.00;;;;;;5117026;28;19943;-77
2021/12/13 00:04:11;;;;;;;;;;;23.30;40.00;;;;;;5117862;28;19943;-80
2021/12/13 00:06:38;;;;;;;;;;;23.30;40.00;;;;;;5115679;28;19912;-77
2021/12/13 00:09:06;;;;;;;;;;;23.40;40.00;;;;;;5116926;28;19930;-78
2021/12/13 00:11:34;;;;;;;;;;;23.30;40.00;;;;;;5117562;28;19907;-78
2021/12/13 00:14:01;;;;;;;;;;;23.30;40.00;;;;;;5099598;28;19918;-75
2021/12/13 00:16:34;;;;;;;;;;;23.30;40.00;;;;;;5116536;28;19912;-77
2021/12/13 00:19:00;;;;;;;;;;;23.30;40.00;;;;;;5117398;28;19915;-79
2021/12/13 00:21:36;;;;;;;;;;;23.30;40.00;;;;;;5116620;28;19924;-81
2021/12/13 00:24:06;;;;;;;;;;;23.30;40.00;;;;;;5116677;28;20374;-76
2021/12/13 00:26:34;;;;;;;;;;;23.30;40.00;;;;;;5116506;28;19908;-80
2021/12/13 00:29:08;;;;;;;;;;;23.30;40.50;;;;;;5116637;28;19918;-76
2021/12/13 00:31:41;;;;;;;;;;;23.30;40.50;;;;;;5116445;28;20249;-78
2021/12/13 00:34:35;;;;;;;;;;;23.30;39.90;;;;;;5116360;28;19912;-76
2021/12/13 00:37:10;;;;;;;;;;;23.30;39.90;;;;;;5115601;28;19918;-77
2021/12/13 00:39:41;;;;;;;;;;;23.30;39.90;;;;;;5117128;28;19907;-78
2021/12/13 00:42:07;;;;;;;;;;;23.30;40.00;;;;;;5116945;28;19916;-81
2021/12/13 00:44:34;;;;;;;;;;;23.30;39.90;;;;;;5116131;28;19993;-79
2021/12/13 00:47:01;;;;;;;;;;;23.30;40.00;;;;;;5116878;28;20349;-79
2021/12/13 00:49:27;;;;;;;;;;;23.30;40.00;;;;;;5116848;28;19912;-77
2021/12/13 00:51:53;;;;;;;;;;;23.30;39.90;;;;;;5116080;28;19930;-78
2021/12/13 00:54:20;;;;;;;;;;;23.30;39.90;;;;;;5098992;28;19915;-76
2021/12/13 00:56:45;;;;;;;;;;;23.30;39.90;;;;;;5116087;28;19936;-77
2021/12/13 00:59:16;;;;;;;;;;;23.30;39.90;;;;;;5115967;28;19916;-77
2021/12/13 01:01:41;;;;;;;;;;;23.30;39.90;;;;;;5115620;28;19920;-79
2021/12/13 01:04:13;;;;;;;;;;;23.30;39.90;;;;;;5116514;28;19915;-77
2021/12/13 01:06:58;;;;;;;;;;;23.30;39.90;;;;;;5098834;28;20348;-79
2021/12/13 01:09:42;;;;;;;;;;;23.30;39.90;;;;;;5115612;28;20449;-78
2021/12/13 01:12:09;;;;;;;;;;;23.30;39.90;;;;;;5116399;28;19908;-78
2021/12/13 01:14:38;;;;;;;;;;;23.30;39.90;;;;;;5115751;28;20249;-77
2021/12/13 01:17:22;;;;;;;;;;;23.30;39.90;;;;;;5116393;28;19947;-77
2021/12/13 01:20:05;;;;;;;;;;;23.30;39.90;;;;;;5115471;28;20376;-78
2021/12/13 01:25:37;;;;;;;;;;;23.30;39.90;;;;;;5115753;28;19915;-76
2021/12/13 01:28:08;;;;;;;;;;;23.30;39.90;;;;;;5116423;28;19919;-81
2021/12/13 01:30:35;;;;;;;;;;;23.30;39.90;;;;;;5115305;28;19918;-77
2021/12/13 01:33:05;;;;;;;;;;;23.30;39.90;;;;;;5116346;28;19912;-81
2021/12/13 01:35:34;;;;;;;;;;;23.30;39.90;;;;;;5115274;28;19918;-76
2021/12/13 01:38:05;;;;;;;;;;;23.30;39.90;;;;;;5098357;28;19908;-75
2021/12/13 01:40:31;;;;;;;;;;;23.30;39.80;;;;;;5115691;28;19912;-76
2021/12/13 01:43:02;;;;;;;;;;;23.30;39.80;;;;;;5114624;28;20268;-80
2021/12/13 01:45:28;;;;;;;;;;;23.30;39.90;;;;;;5115852;28;19919;-76
2021/12/13 01:47:56;;;;;;;;;;;23.30;39.90;;;;;;5115846;28;19919;-79
2021/12/13 01:50:28;;;;;;;;;;;23.30;39.90;;;;;;5098009;28;19908;-76
2021/12/13 01:53:00;;;;;;;;;;;23.20;39.80;;;;;;5115829;28;19908;-77
2021/12/13 01:55:29;;;;;;;;;;;23.30;39.90;;;;;;5115806;28;19962;-78
2021/12/13 02:03:52;;;;;;;;;;;23.20;39.90;;;;;;5115311;28;20406;-78
2021/12/13 02:06:26;;;;;;;;;;;23.20;39.90;;;;;;5115186;28;20410;-77
2021/12/13 02:08:52;;;;;;;;;;;23.20;39.90;;;;;;5115448;28;19907;-77
2021/12/13 02:11:17;;;;;;;;;;;23.20;39.80;;;;;;5114684;28;19908;-79
2021/12/13 02:14:03;;;;;;;;;;;23.20;39.80;;;;;;5114621;28;19908;-79
2021/12/13 02:19:18;;;;;;;;;;;23.20;39.80;;;;;;5114803;28;19933;-79
2021/12/13 02:21:46;;;;;;;;;;;23.20;39.80;;;;;;5114783;28;19912;-77
2021/12/13 02:24:12;;;;;;;;;;;23.20;39.80;;;;;;5097559;28;19908;-81
2021/12/13 02:26:39;;;;;;;;;;;23.20;39.90;;;;;;5114508;28;20394;-78
2021/12/13 02:29:06;;;;;;;;;;;23.20;39.80;;;;;;5114471;28;19912;-75
2021/12/13 02:31:35;;;;;;;;;;;23.30;39.80;;;;;;5114380;28;20340;-76
2021/12/13 02:34:05;;;;;;;;;;;23.30;39.80;;;;;;5097588;28;19954;-79
2021/12/13 02:36:32;;;;;;;;;;;23.30;39.80;;;;;;5097686;28;19919;-79
2021/12/13 02:38:58;;;;;;;;;;;23.30;39.80;;;;;;5114631;28;19911;-78
2021/12/13 02:41:25;;;;;;;;;;;23.20;39.80;;;;;;5114503;28;19982;-77
2021/12/13 02:43:52;;;;;;;;;;;23.30;39.80;;;;;;5115183;28;19907;-77
2021/12/13 02:46:18;;;;;;;;;;;23.30;39.80;;;;;;5115225;28;20360;-78
2021/12/13 02:48:45;;;;;;;;;;;23.30;39.80;;;;;;5115124;28;19915;-77
2021/12/13 02:51:12;;;;;;;;;;;23.20;39.70;;;;;;5114375;28;19919;-79
2021/12/13 02:53:58;;;;;;;;;;;23.30;39.80;;;;;;5114403;28;20015;-76
2021/12/13 02:56:27;;;;;;;;;;;23.30;39.80;;;;;;5118443;28;19919;-80
2021/12/13 02:58:52;;;;;;;;;;;23.20;40.40;;;;;;5118843;28;19927;-78
2021/12/13 03:01:26;;;;;;;;;;;23.20;39.80;;;;;;5118059;28;20313;-77
2021/12/13 03:03:53;;;;;;;;;;;23.20;39.80;;;;;;5118865;28;20341;-79
2021/12/13 03:06:22;;;;;;;;;;;23.20;39.80;;;;;;5118936;28;19946;-76
2021/12/13 03:08:50;;;;;;;;;;;23.20;39.80;;;;;;5118926;28;19912;-76
2021/12/13 03:11:23;;;;;;;;;;;23.20;39.70;;;;;;5101667;28;19907;-79
2021/12/13 03:13:53;;;;;;;;;;;23.20;39.70;;;;;;5119644;28;19908;-77
2021/12/13 03:16:18;;;;;;;;;;;23.20;39.70;;;;;;5119206;28;19934;-77
2021/12/13 03:18:44;;;;;;;;;;;23.20;39.70;;;;;;5119005;28;20356;-80
2021/12/13 03:21:13;;;;;;;;;;;23.20;39.70;;;;;;5118912;28;19915;-78
2021/12/13 03:23:44;;;;;;;;;;;23.20;39.70;;;;;;5119034;28;20271;-81
2021/12/13 03:26:20;;;;;;;;;;;23.20;39.70;;;;;;5117737;28;19908;-77
2021/12/13 03:28:56;;;;;;;;;;;23.20;39.80;;;;;;5117629;28;19910;-79
2021/12/13 03:31:26;;;;;;;;;;;23.20;39.80;;;;;;5117760;28;20002;-80
2021/12/13 03:33:57;;;;;;;;;;;23.20;39.80;;;;;;5101262;28;19919;-77
2021/12/13 03:36:36;;;;;;;;;;;23.30;39.80;;;;;;5117479;28;19916;-78
2021/12/13 03:39:04;;;;;;;;;;;23.20;39.80;;;;;;5118040;28;19972;-80
2021/12/13 03:41:30;;;;;;;;;;;23.20;39.80;;;;;;5117298;28;19940;-77
2021/12/13 03:44:00;;;;;;;;;;;23.30;39.80;;;;;;5100921;28;19964;-79
2021/12/13 03:46:29;;;;;;;;;;;23.20;39.70;;;;;;5101394;28;19907;-83
2021/12/13 03:48:55;;;;;;;;;;;23.20;39.70;;;;;;5117719;28;19916;-78
2021/12/13 03:51:24;;;;;;;;;;;23.20;39.70;;;;;;5117322;28;19964;-75
2021/12/13 03:53:54;;;;;;;;;;;23.20;39.70;;;;;;5117303;28;19908;-79
2021/12/13 03:56:22;;;;;;;;;;;23.20;39.70;;;;;;5117165;28;19994;-78
2021/12/13 03:58:51;;;;;;;;;;;23.20;39.70;;;;;;5118140;28;20251;-77
2021/12/13 04:01:20;;;;;;;;;;;23.20;39.60;;;;;;5117814;28;20260;-80
2021/12/13 04:03:46;;;;;;;;;;;23.20;39.60;;;;;;5117238;28;19915;-81
2021/12/13 04:06:15;;;;;;;;;;;23.30;39.60;;;;;;5116247;28;19916;-76
2021/12/13 04:08:41;;;;;;;;;;;23.30;39.60;;;;;;5100081;28;19908;-79
2021/12/13 04:11:09;;;;;;;;;;;23.30;39.60;;;;;;5116851;28;19912;-79
2021/12/13 04:13:40;;;;;;;;;;;23.30;39.60;;;;;;5116996;28;19919;-75
2021/12/13 04:16:15;;;;;;;;;;;23.30;39.60;;;;;;5117808;28;19914;-77
2021/12/13 04:19:28;;;;;;;;;;;23.30;40.20;;;;;;5116926;28;19958;-77
2021/12/13 04:21:42;;;;;;;;;;;23.30;40.20;;;;;;5110027;28;20328;-76
2021/12/13 04:24:12;;;;;;;;;;;23.30;39.60;;;;;;5099753;28;19919;-77
2021/12/13 04:26:41;;;;;;;;;;;23.30;39.60;;;;;;5116805;28;20003;-78
2021/12/13 04:29:10;;;;;;;;;;;23.30;39.60;;;;;;5116544;28;19912;-81
2021/12/13 04:31:37;;;;;;;;;;;23.30;39.60;;;;;;5116773;28;19907;-76
2021/12/13 04:34:03;;;;;;;;;;;23.30;39.50;;;;;;5116565;28;19907;-86
2021/12/13 04:36:32;;;;;;;;;;;23.30;39.50;;;;;;5116504;28;19962;-77
2021/12/13 04:39:03;;;;;;;;;;;23.30;39.50;;;;;;5116543;28;19923;-80
2021/12/13 04:41:33;;;;;;;;;;;23.30;39.50;;;;;;5117199;28;19911;-76
2021/12/13 04:44:02;;;;;;;;;;;23.30;39.50;;;;;;5117144;28;19908;-77
2021/12/13 04:46:31;;;;;;;;;;;23.30;39.50;;;;;;5117032;28;20389;-75
2021/12/13 04:48:59;;;;;;;;;;;23.30;39.50;;;;;;5099408;28;20024;-78
2021/12/13 04:51:25;;;;;;;;;;;23.30;39.50;;;;;;5115958;28;19935;-80
2021/12/13 04:53:52;;;;;;;;;;;23.30;39.50;;;;;;5116640;28;19943;-77
2021/12/13 04:56:25;;;;;;;;;;;23.30;39.50;;;;;;5116833;28;19919;-77
2021/12/13 04:58:53;;;;;;;;;;;23.30;39.40;;;;;;5116641;28;19994;-77
2021/12/13 05:01:18;;;;;;;;;;;23.30;39.40;;;;;;5115837;28;20245;-80
2021/12/13 05:03:47;;;;;;;;;;;23.30;39.40;;;;;;5115932;28;19996;-82
2021/12/13 05:06:14;;;;;;;;;;;23.30;39.40;;;;;;5116825;28;19907;-81
2021/12/13 05:08:42;;;;;;;;;;;23.30;39.40;;;;;;5115847;28;19954;-83
2021/12/13 05:11:08;;;;;;;;;;;23.30;39.40;;;;;;5115893;28;19907;-77
2021/12/13 05:13:38;;;;;;;;;;;23.30;39.40;;;;;;5115839;28;19914;-78
2021/12/13 05:16:09;;;;;;;;;;;23.30;39.40;;;;;;5115769;28;20351;-75
2021/12/13 05:18:37;;;;;;;;;;;23.30;39.40;;;;;;5114881;28;19919;-78
2021/12/13 05:21:04;;;;;;;;;;;23.30;39.40;;;;;;5116505;28;19941;-79
2021/12/13 05:23:33;;;;;;;;;;;23.30;39.40;;;;;;5099124;28;20411;-77
2021/12/13 05:26:00;;;;;;;;;;;23.30;39.40;;;;;;5116960;28;20346;-80
2021/12/13 05:28:30;;;;;;;;;;;23.30;39.40;;;;;;5115538;28;19980;-76
2021/12/13 05:30:58;;;;;;;;;;;23.30;39.40;;;;;;5116523;28;19919;-75
2021/12/13 05:33:26;;;;;;;;;;;23.30;39.40;;;;;;5123321;28;19908;-77
2021/12/13 05:35:54;;;;;;;;;;;23.40;39.50;;;;;;5123848;28;19907;-79
2021/12/13 05:38:29;;;;;;;;;;;23.30;40.20;;;;;;5120877;28;19907;-74
2021/12/13 05:40:57;;;;;;;;;;;23.30;40.10;;;;;;5116442;28;19908;-79
2021/12/13 05:43:28;;;;;;;;;;;23.40;40.10;;;;;;5115341;28;20011;-77
2021/12/13 05:46:07;;;;;;;;;;;23.40;40.00;;;;;;5116296;28;20259;-77
2021/12/13 05:48:37;;;;;;;;;;;23.40;40.20;;;;;;5116064;28;19916;-77
2021/12/13 05:51:10;;;;;;;;;;;23.40;40.10;;;;;;5115191;28;19915;-77
2021/12/13 05:53:42;;;;;;;;;;;23.40;40.30;;;;;;5115464;28;19908;-79
2021/12/13 05:56:09;;;;;;;;;;;23.40;40.30;;;;;;5098411;28;19908;-77
2021/12/13 05:58:38;;;;;;;;;;;23.50;40.30;;;;;;5114863;28;19907;-76
2021/12/13 06:01:11;;;;;;;;;;;23.50;40.50;;;;;;5115489;28;19923;-76
2021/12/13 06:03:36;;;;;;;;;;;23.50;40.60;;;;;;5114790;28;20388;-79
2021/12/13 06:06:07;;;;;;;;;;;23.50;40.90;;;;;;5115487;28;19943;-80
2021/12/13 06:08:38;;;;;;;;;;;23.50;41.90;;;;;;5114817;28;19919;-78
2021/12/13 06:11:07;;;;;;;;;;;23.50;41.40;;;;;;5097637;28;19916;-77
2021/12/13 06:13:42;;;;;;;;;;;23.50;41.40;;;;;;5114935;28;19919;-78
2021/12/13 06:16:09;;;;;;;;;;;23.60;41.50;;;;;;5115646;28;19912;-78
2021/12/13 06:18:38;;;;;;;;;;;23.50;41.30;;;;;;5115693;28;20003;-77
2021/12/13 06:21:22;;;;;;;;;;;23.60;42.80;;;;;;5115451;28;19923;-76
2021/12/13 06:23:48;;;;;;;;;;;23.60;42.30;;;;;;5098420;28;19908;-79
2021/12/13 06:26:14;;;;;;;;;;;23.60;49.60;;;;;;5114837;28;19964;-76
2021/12/13 06:28:40;;;;;;;;;;;23.60;51.40;;;;;;5097357;28;19908;-79
2021/12/13 06:31:11;;;;;;;;;;;23.60;51.00;;;;;;5101590;28;19977;-80
2021/12/13 06:33:46;;;;;;;;;;;23.60;50.50;;;;;;5119480;28;19934;-79
2021/12/13 06:36:12;;;;;;;;;;;23.60;49.90;;;;;;5119465;28;19927;-76
2021/12/13 06:38:50;;;;;;;;;;;23.60;49.60;;;;;;5118532;28;20336;-77
2021/12/13 06:41:19;;;;;;;;;;;23.60;49.20;;;;;;5119781;28;19911;-79
2021/12/13 06:43:50;;;;;;;;;;;23.60;48.90;;;;;;5119243;28;19908;-79
2021/12/13 06:46:24;;;;;;;;;;;23.60;48.70;;;;;;5118509;28;20450;-79
2021/12/13 06:49:02;;;;;;;;;;;23.60;48.40;;;;;;5118390;28;19947;-80
2021/12/13 06:51:47;;;;;;;;;;;23.60;48.20;;;;;;5118459;28;19908;-78
2021/12/13 06:54:14;;;;;;;;;;;23.60;47.90;;;;;;5119149;28;19908;-79
2021/12/13 06:56:40;;;;;;;;;;;23.60;47.70;;;;;;5118204;28;19908;-78
2021/12/13 06:59:06;;;;;;;;;;;23.60;47.50;;;;;;5119318;28;20003;-79
2021/12/13 07:01:32;;;;;;;;;;;23.60;47.30;;;;;;5118375;28;19918;-81
2021/12/13 07:04:03;;;;;;;;;;;23.50;47.20;;;;;;5101409;28;19908;-76
2021/12/13 07:06:31;;;;;;;;;;;23.60;47.10;;;;;;5118547;28;19998;-75
2021/12/13 07:09:15;;;;;;;;;;;23.60;46.90;;;;;;5118250;28;20328;-83
2021/12/13 07:11:44;;;;;;;;;;;23.60;46.80;;;;;;5119014;28;19907;-76
2021/12/13 07:14:13;;;;;;;;;;;23.60;46.70;;;;;;5118733;28;19908;-76
2021/12/13 07:16:40;;;;;;;;;;;23.60;46.70;;;;;;5117894;28;19966;-77
2021/12/13 07:19:08;;;;;;;;;;;23.60;46.60;;;;;;5117741;28;20395;-78
2021/12/13 07:21:57;;;;;;;;;;;23.60;46.60;;;;;;5118669;28;20014;-78
2021/12/13 07:24:42;;;;;;;;;;;23.60;46.50;;;;;;5118554;28;20316;-78
2021/12/13 07:27:08;;;;;;;;;;;23.60;46.40;;;;;;5117821;28;20011;-78
2021/12/13 07:29:36;;;;;;;;;;;23.60;46.50;;;;;;5117511;28;19935;-81
2021/12/13 07:32:07;;;;;;;;;;;23.60;46.50;;;;;;5118452;28;19912;-77
2021/12/13 07:34:33;;;;;;;;;;;23.60;46.40;;;;;;5118313;28;20229;-77
2021/12/13 07:36:59;;;;;;;;;;;23.60;46.30;;;;;;5118458;28;19908;-77
2021/12/13 07:39:26;;;;;;;;;;;23.60;46.30;;;;;;5117535;28;19908;-79
2021/12/13 07:41:53;;;;;;;;;;;23.60;46.20;;;;;;5116275;28;19912;-80
2021/12/13 07:44:35;;;;;;;;;;;23.60;46.20;;;;;;5117269;28;19908;-77
2021/12/13 07:47:02;;;;;;;;;;;23.60;46.30;;;;;;5118053;28;19912;-76
2021/12/13 07:49:35;;;;;;;;;;;23.60;46.20;;;;;;5117208;28;19907;-78
2021/12/13 07:52:03;;;;;;;;;;;23.60;46.00;;;;;;5118207;28;19918;-77
2021/12/13 07:54:35;;;;;;;;;;;23.60;46.00;;;;;;5117832;28;19907;-76
2021/12/13 07:57:01;;;;;;;;;;;23.60;45.90;;;;;;5100051;28;19947;-76
2021/12/13 07:59:34;;;;;;;;;;;23.60;45.90;;;;;;5116882;28;19997;-79
2021/12/13 08:02:07;;;;;;;;;;;23.60;45.90;;;;;;5116897;28;19980;-82
2021/12/13 08:04:53;;;;;;;;;;;23.60;45.80;;;;;;5117806;28;19908;-79
2021/12/13 08:07:22;;;;;;;;;;;23.60;45.70;;;;;;5117422;28;19908;-83
2021/12/13 08:09:52;;;;;;;;;;;23.60;45.70;;;;;;5116697;28;19912;-76
2021/12/13 08:12:22;;;;;;;;;;;23.60;45.60;;;;;;5117581;28;19912;-78
2021/12/13 08:14:48;;;;;;;;;;;23.60;45.60;;;;;;5116887;28;19912;-80
2021/12/13 08:17:18;;;;;;;;;;;23.60;45.60;;;;;;5116673;28;20003;-77
2021/12/13 08:19:51;;;;;;;;;;;23.60;45.70;;;;;;5118227;28;19908;-81
2021/12/13 08:22:20;;;;;;;;;;;23.60;45.70;;;;;;5116487;28;19923;-79
2021/12/13 08:24:47;;;;;;;;;;;23.60;45.60;;;;;;5116376;28;19958;-79
2021/12/13 08:27:22;;;;;;;;;;;23.60;45.60;;;;;;5116480;28;19907;-76
2021/12/13 08:29:50;;;;;;;;;;;23.60;45.60;;;;;;5116566;28;19912;-78
2021/12/13 08:32:21;;;;;;;;;;;23.60;45.50;;;;;;5099727;28;19919;-76
2021/12/13 08:34:47;;;;;;;;;;;23.70;45.50;;;;;;5099706;28;19954;-80
2021/12/13 08:37:14;;;;;;;;;;;23.70;45.50;;;;;;5117508;28;19907;-78
2021/12/13 08:39:43;;;;;;;;;;;23.70;45.30;;;;;;5116384;28;19908;-77
2021/12/13 08:44:59;;;;;;;;;;;23.70;46.40;;;;;;5092623;28;19913;-76
2021/12/13 08:47:26;;;;;;;;;;;23.70;46.20;;;;;;5108242;28;19924;-80
2021/12/13 08:49:53;;;;;;;;;;;23.90;46.30;;;;;;5091732;28;20318;-76
2021/12/13 08:52:20;;;;;;;;;;;23.90;46.00;;;;;;5092565;28;20341;-79
2021/12/13 08:54:52;;;;;;;;;;;24.00;46.40;;;;;;5092350;28;19915;-77
2021/12/13 08:57:30;;;;;;;;;;;24.00;46.40;;;;;;5091379;28;20321;-77
2021/12/13 08:59:55;;;;;;;;;;;24.10;46.20;;;;;;5092532;28;19908;-79
2021/12/13 09:02:23;;;;;;;;;;;24.10;46.10;;;;;;5108559;28;19935;-77
2021/12/13 09:04:54;;;;;;;;;;;24.20;46.10;;;;;;5092225;28;19920;-78
2021/12/13 09:07:20;;;;;;;;;;;24.20;45.90;;;;;;5092204;28;20007;-76
2021/12/13 09:09:46;;;;;;;;;;;24.30;45.80;;;;;;5092373;28;19967;-77
2021/12/13 09:12:14;;;;;;;;;;;24.30;45.50;;;;;;5092147;28;19912;-78
2021/12/13 09:14:42;;;;;;;;;;;24.50;45.20;;;;;;5091952;28;19944;-73
2021/12/13 09:17:10;;;;;;;;;;;24.60;45.10;;;;;;5091866;28;19908;-77
2021/12/13 09:19:38;;;;;;;;;;;24.60;44.90;;;;;;5091860;28;19917;-74
2021/12/13 09:22:07;;;;;;;;;;;24.70;44.90;;;;;;5091674;28;19957;-78
2021/12/13 09:24:33;;;;;;;;;;;24.70;45.50;;;;;;5125155;28;19912;-75
2021/12/13 09:27:28;;;;;;;;;;;24.80;44.80;;;;;;5091725;28;20238;-75
2021/12/13 09:30:14;;;;;;;;;;;24.80;44.80;;;;;;5099030;28;19908;-75
2021/12/13 09:32:44;;;;;;;;;;;24.80;44.60;;;;;;5091945;28;19908;-75
2021/12/13 09:35:16;;;;;;;;;;;24.80;44.40;;;;;;5091987;28;19934;-77
2021/12/13 09:37:44;;;;;;;;;;;24.90;44.50;;;;;;5091845;28;19920;-80
2021/12/13 09:40:10;;;;;;;;;;;24.90;44.10;;;;;;5125012;28;19927;-80
2021/12/13 09:42:54;;;;;;;;;;;24.90;43.90;;;;;;5128066;28;19920;-77
2021/12/13 09:45:25;;;;;;;;;;;24.90;43.80;;;;;;5093799;28;19908;-80
2021/12/13 09:47:51;;;;;;;;;;;24.90;43.70;;;;;;5094031;28;19914;-81
2021/12/13 09:50:18;;;;;;;;;;;24.90;43.50;;;;;;5093755;28;19999;-78
2021/12/13 09:52:48;;;;;;;;;;;25.00;43.30;;;;;;5093800;28;19970;-79
2021/12/13 09:55:18;;;;;;;;;;;25.00;43.20;;;;;;5102395;28;19944;-76
2021/12/13 09:57:48;;;;;;;;;;;25.00;43.10;;;;;;5097888;28;19918;-77
2021/12/13 10:00:35;;;;;;;;;;;25.00;43.00;;;;;;5098110;28;20307;-76
2021/12/13 10:03:04;;;;;;;;;;;25.00;42.90;;;;;;5080621;28;19912;-76
2021/12/13 10:05:36;;;;;;;;;;;25.00;42.80;;;;;;5064042;28;19908;-76
2021/12/13 10:08:12;;;;;;;;;;;25.10;42.80;;;;;;5063703;28;19923;-81
2021/12/13 10:10:40;;;;;;;;;;;25.10;42.80;;;;;;5097721;28;19919;-77
2021/12/13 10:13:06;;;;;;;;;;;25.10;42.70;;;;;;5080880;28;19939;-80
2021/12/13 10:15:33;;;;;;;;;;;25.10;42.70;;;;;;5100627;28;20015;-74
2021/12/13 10:18:07;;;;;;;;;;;25.10;42.60;;;;;;5103985;28;20000;-77
2021/12/13 10:20:34;;;;;;;;;;;25.10;42.70;;;;;;5099048;28;19908;-77
2021/12/13 10:23:02;;;;;;;;;;;25.10;42.70;;;;;;5097865;28;19923;-79
2021/12/13 10:25:37;;;;;;;;;;;25.10;42.80;;;;;;5080643;28;19931;-77
2021/12/13 10:28:04;;;;;;;;;;;25.20;43.00;;;;;;5063061;28;19908;-75
2021/12/13 10:30:41;;;;;;;;;;;25.20;43.00;;;;;;5079548;28;20233;-76
2021/12/13 10:33:09;;;;;;;;;;;25.20;43.00;;;;;;5097637;28;20284;-76
2021/12/13 10:35:36;;;;;;;;;;;25.20;42.90;;;;;;5097247;28;19908;-78
2021/12/13 10:38:03;;;;;;;;;;;25.30;42.80;;;;;;5079550;28;19908;-77
2021/12/13 10:40:35;;;;;;;;;;;25.30;42.80;;;;;;5097147;28;19912;-78
2021/12/13 10:43:05;;;;;;;;;;;25.30;42.70;;;;;;5096787;28;19938;-78
2021/12/13 10:45:34;;;;;;;;;;;25.30;42.60;;;;;;5079804;28;19912;-75
2021/12/13 10:48:01;;;;;;;;;;;25.30;42.50;;;;;;5080079;28;20341;-77
2021/12/13 10:50:46;;;;;;;;;;;25.30;42.40;;;;;;5097456;28;19919;-79
2021/12/13 10:53:12;;;;;;;;;;;25.30;42.30;;;;;;5096587;28;19912;-80
2021/12/13 10:55:44;;;;;;;;;;;25.30;42.30;;;;;;5097043;28;19913;-79
2021/12/13 10:58:10;;;;;;;;;;;25.30;42.30;;;;;;5079944;28;19954;-81
2021/12/13 11:00:40;;;;;;;;;;;25.30;42.20;;;;;;5079056;28;19912;-77
2021/12/13 11:03:09;;;;;;;;;;;25.30;42.20;;;;;;5096474;28;19912;-77
2021/12/13 11:05:35;;;;;;;;;;;25.30;42.20;;;;;;5078805;28;19930;-79
2021/12/13 11:08:04;;;;;;;;;;;25.30;42.10;;;;;;5078161;28;19974;-78
2021/12/13 11:10:34;;;;;;;;;;;25.30;42.10;;;;;;5062117;28;19912;-78
2021/12/13 11:13:04;;;;;;;;;;;25.30;42.10;;;;;;5096564;28;20280;-77
2021/12/13 11:15:31;;;;;;;;;;;25.30;42.10;;;;;;5079146;28;19928;-79
2021/12/13 11:17:57;;;;;;;;;;;25.30;42.10;;;;;;5079054;28;19914;-78
2021/12/13 11:20:24;;;;;;;;;;;25.30;42.70;;;;;;5062449;28;19908;-79
2021/12/13 11:22:52;;;;;;;;;;;25.30;42.10;;;;;;5078979;28;20014;-77
2021/12/13 11:25:19;;;;;;;;;;;25.30;42.10;;;;;;5062352;28;20263;-78
2021/12/13 11:27:47;;;;;;;;;;;25.30;42.10;;;;;;5078783;28;19908;-80
2021/12/13 11:30:18;;;;;;;;;;;25.30;42.10;;;;;;5062376;28;20363;-77
2021/12/13 11:32:58;;;;;;;;;;;25.30;42.10;;;;;;5078520;28;19908;-78
2021/12/13 11:35:33;;;;;;;;;;;25.30;42.10;;;;;;5096173;28;19908;-77
2021/12/13 11:38:20;;;;;;;;;;;25.30;42.30;;;;;;5078788;28;19908;-77
2021/12/13 11:41:04;;;;;;;;;;;25.30;42.30;;;;;;5065138;28;19908;-78
2021/12/13 11:43:35;;;;;;;;;;;25.30;42.50;;;;;;5096060;28;19920;-78
2021/12/13 11:46:06;;;;;;;;;;;25.30;42.50;;;;;;5096292;28;19908;-76
2021/12/13 11:48:42;;;;;;;;;;;25.30;42.50;;;;;;5096284;28;19959;-76
2021/12/13 11:51:26;;;;;;;;;;;25.30;42.50;;;;;;5078551;28;19908;-77
2021/12/13 11:54:15;;;;;;;;;;;25.30;42.50;;;;;;5078088;28;19912;-79
2021/12/13 11:56:51;;;;;;;;;;;25.30;42.60;;;;;;5062115;28;19923;-80
2021/12/13 11:59:35;;;;;;;;;;;25.30;42.60;;;;;;5077954;28;19908;-77
2021/12/13 12:02:11;;;;;;;;;;;25.40;42.60;;;;;;5078047;28;19919;-81
2021/12/13 12:04:56;;;;;;;;;;;25.40;42.50;;;;;;5061576;28;19970;-77
2021/12/13 12:07:26;;;;;;;;;;;25.40;42.50;;;;;;5078403;28;19912;-78
2021/12/13 12:10:10;;;;;;;;;;;25.40;42.50;;;;;;5095745;28;19955;-78
2021/12/13 12:12:43;;;;;;;;;;;25.40;42.60;;;;;;5077946;28;19914;-76
2021/12/13 12:15:09;;;;;;;;;;;25.40;42.60;;;;;;5077718;28;20268;-77
2021/12/13 12:17:35;;;;;;;;;;;25.40;42.60;;;;;;5095477;28;19908;-77
2021/12/13 12:20:01;;;;;;;;;;;25.50;42.60;;;;;;5095591;28;20351;-79
2021/12/13 12:22:27;;;;;;;;;;;25.50;42.50;;;;;;5095850;28;19919;-83
2021/12/13 12:24:54;;;;;;;;;;;25.50;42.50;;;;;;5077903;28;19925;-77
2021/12/13 12:27:20;;;;;;;;;;;25.50;42.40;;;;;;5095881;28;19912;-80
2021/12/13 12:29:56;;;;;;;;;;;25.50;42.40;;;;;;5095476;28;20342;-82
2021/12/13 12:32:28;;;;;;;;;;;25.50;42.40;;;;;;5078005;28;19912;-78
2021/12/13 12:34:58;;;;;;;;;;;25.50;42.30;;;;;;5095561;28;19916;-74
2021/12/13 12:37:44;;;;;;;;;;;25.60;42.50;;;;;;5077486;28;19945;-78
2021/12/13 12:40:10;;;;;;;;;;;25.60;42.40;;;;;;5095264;28;19912;-76
2021/12/13 12:42:36;;;;;;;;;;;25.60;42.40;;;;;;5077100;28;20356;-77
2021/12/13 12:45:10;;;;;;;;;;;25.60;42.40;;;;;;5077592;28;20351;-78
2021/12/13 12:47:36;;;;;;;;;;;25.60;42.40;;;;;;5077777;28;19908;-75
2021/12/13 12:50:13;;;;;;;;;;;25.60;42.40;;;;;;5095025;28;19923;-76
2021/12/13 12:52:48;;;;;;;;;;;25.60;42.30;;;;;;5095128;28;19947;-78
2021/12/13 12:55:16;;;;;;;;;;;25.60;42.30;;;;;;5077077;28;19908;-77
2021/12/13 12:57:44;;;;;;;;;;;25.60;42.30;;;;;;5095032;28;19931;-82
2021/12/13 13:00:10;;;;;;;;;;;25.40;36.60;;;;;;5061404;28;19967;-81
2021/12/13 13:02:36;;;;;;;;;;;24.10;33.00;;;;;;5095497;28;19940;-79
2021/12/13 13:05:03;;;;;;;;;;;23.90;38.10;;;;;;5078239;28;19911;-76
2021/12/13 13:07:32;;;;;;;;;;;24.10;39.10;;;;;;5077616;28;19915;-75
2021/12/13 13:09:59;;;;;;;;;;;24.30;39.70;;;;;;5078022;28;20106;-75
2021/12/13 13:12:30;;;;;;;;;;;24.60;39.80;;;;;;5061076;28;19920;-75
2021/12/13 13:14:56;;;;;;;;;;;24.80;39.80;;;;;;5060779;28;20252;-74
2021/12/13 13:17:24;;;;;;;;;;;24.90;39.70;;;;;;5094714;28;19916;-80
2021/12/13 13:19:56;;;;;;;;;;;25.00;39.60;;;;;;5094694;28;19912;-77
2021/12/13 13:22:22;;;;;;;;;;;25.10;39.70;;;;;;5061005;28;19908;-79
2021/12/13 13:24:52;;;;;;;;;;;25.20;39.80;;;;;;5094559;28;19919;-76
2021/12/13 13:27:18;;;;;;;;;;;25.30;39.80;;;;;;5094433;28;19909;-75
2021/12/13 13:29:44;;;;;;;;;;;25.30;39.90;;;;;;5078059;28;19948;-77
2021/12/13 13:32:12;;;;;;;;;;;25.30;39.90;;;;;;5098765;28;19912;-75
2021/12/13 13:34:40;;;;;;;;;;;25.30;40.00;;;;;;5098687;28;19908;-75
2021/12/13 13:37:09;;;;;;;;;;;25.40;40.10;;;;;;5080988;28;20328;-78
2021/12/13 13:39:57;;;;;;;;;;;25.40;40.20;;;;;;5081171;28;19908;-75
2021/12/13 13:42:25;;;;;;;;;;;25.40;40.20;;;;;;5098444;28;19951;-79
2021/12/13 13:44:59;;;;;;;;;;;25.40;40.00;;;;;;5080139;28;19920;-77
2021/12/13 13:47:25;;;;;;;;;;;25.40;39.90;;;;;;5098170;28;19908;-76
2021/12/13 13:49:51;;;;;;;;;;;25.40;39.90;;;;;;5080293;28;19919;-78
2021/12/13 13:52:18;;;;;;;;;;;25.40;40.10;;;;;;5064060;28;19908;-77
2021/12/13 13:54:47;;;;;;;;;;;25.40;40.40;;;;;;5098155;28;19931;-79
2021/12/13 13:57:17;;;;;;;;;;;25.40;40.70;;;;;;5097990;28;19923;-81
2021/12/13 13:59:42;;;;;;;;;;;25.40;40.70;;;;;;5080775;28;19919;-83
2021/12/13 14:02:08;;;;;;;;;;;25.40;40.80;;;;;;5080854;28;19908;-78
2021/12/13 14:04:35;;;;;;;;;;;25.30;36.80;;;;;;5065648;28;20014;-78
2021/12/13 14:07:04;;;;;;;;;;;24.90;35.30;;;;;;5082869;28;20009;-80
2021/12/13 14:09:35;;;;;;;;;;;24.30;34.20;;;;;;5083060;28;19908;-81
2021/12/13 14:12:06;;;;;;;;;;;24.00;34.10;;;;;;5103063;28;19976;-80
2021/12/13 14:14:48;;;;;;;;;;;23.80;35.20;;;;;;5097873;28;19912;-77
2021/12/13 14:17:14;;;;;;;;;;;23.60;35.10;;;;;;5063336;28;20340;-77
2021/12/13 14:19:43;;;;;;;;;;;23.50;34.80;;;;;;5097535;28;19908;-79
2021/12/13 14:22:09;;;;;;;;;;;23.30;34.90;;;;;;5080049;28;20390;-80
2021/12/13 14:24:39;;;;;;;;;;;23.30;38.30;;;;;;5079868;28;19912;-78
2021/12/13 14:27:17;;;;;;;;;;;23.60;39.00;;;;;;5097605;28;19913;-75
2021/12/13 14:29:42;;;;;;;;;;;23.80;39.10;;;;;;5079986;28;20370;-76
2021/12/13 14:32:10;;;;;;;;;;;24.00;39.10;;;;;;5079803;28;19912;-80
2021/12/13 14:34:36;;;;;;;;;;;24.20;39.10;;;;;;5079643;28;19919;-80
2021/12/13 14:37:02;;;;;;;;;;;24.30;39.10;;;;;;5079478;28;19908;-81
2021/12/13 14:39:28;;;;;;;;;;;24.40;39.00;;;;;;5062765;28;19934;-77
2021/12/13 14:41:55;;;;;;;;;;;24.50;39.00;;;;;;5096960;28;19948;-76
2021/12/13 14:44:31;;;;;;;;;;;24.60;39.60;;;;;;5096868;28;19920;-80
2021/12/13 14:47:00;;;;;;;;;;;24.70;39.00;;;;;;5097001;28;19920;-77
2021/12/13 14:49:27;;;;;;;;;;;24.90;39.00;;;;;;5079470;28;19908;-76